Portola Valley, California
Current Conditions -  °F | °C
As of 7:47 AM on Thursday 30 Oct 2014 (Local Time) from KPAO Reporting Station
Broken Clouds Broken Clouds  
Wind Chill: 57°   Ceiling: 12000
Heat Index: 57°   Visibility: 10mi
Dew Point: 52°   Wind: 5mph
Humidity: 82%   Direction: NA
Pressure: 29.93"   Gusts: NA
Location:  37.38°N, 122.24°W
Report Text: KPAO 301447Z VRB04KT 10SM BKN120 14/11 A2993
Loading
Personal Weather Stations






























Interactive Weather Map
Tropical Storm Tracking
New forecast layout! Learn more

10-Day Weather Forecast

Advertisements
Track Severe Weather on mobile